sensor_id;sensor_type;location;lat;lon;timestamp;pressure;altitude;pressure_sealevel;temperature;humidity
54556;BME280;57291;37.520;15.106;2022-08-03T00:01:35;100929.72;;;27.45;49.05
54556;BME280;57291;37.520;15.106;2022-08-03T00:04:04;100933.31;;;27.42;49.07
54556;BME280;57291;37.520;15.106;2022-08-03T00:06:32;100938.13;;;27.42;48.83
54556;BME280;57291;37.520;15.106;2022-08-03T00:09:06;100938.13;;;27.38;49.15
54556;BME280;57291;37.520;15.106;2022-08-03T00:11:34;100940.53;;;27.36;49.15
54556;BME280;57291;37.520;15.106;2022-08-03T00:14:05;100932.56;;;27.34;49.22
54556;BME280;57291;37.520;15.106;2022-08-03T00:16:33;100935.78;;;27.29;49.30
54556;BME280;57291;37.520;15.106;2022-08-03T00:19:00;100924.59;;;27.29;48.75
54556;BME280;57291;37.520;15.106;2022-08-03T00:21:28;100928.19;;;27.26;48.12
54556;BME280;57291;37.520;15.106;2022-08-03T00:23:55;100926.22;;;27.23;48.59
54556;BME280;57291;37.520;15.106;2022-08-03T00:26:22;100921.88;;;27.19;48.92
54556;BME280;57291;37.520;15.106;2022-08-03T00:28:50;100920.28;;;27.14;48.68
54556;BME280;57291;37.520;15.106;2022-08-03T00:31:17;100915.47;;;27.11;49.12
54556;BME280;57291;37.520;15.106;2022-08-03T00:34:04;100913.47;;;27.08;48.94
54556;BME280;57291;37.520;15.106;2022-08-03T00:36:32;100915.91;;;27.06;48.94
54556;BME280;57291;37.520;15.106;2022-08-03T00:39:00;100917.50;;;27.00;49.25
54556;BME280;57291;37.520;15.106;2022-08-03T00:41:27;100919.53;;;26.96;49.81
54556;BME280;57291;37.520;15.106;2022-08-03T00:43:54;100916.34;;;26.94;49.31
54556;BME280;57291;37.520;15.106;2022-08-03T00:46:22;100920.69;;;26.95;48.93
54556;BME280;57291;37.520;15.106;2022-08-03T00:48:49;100912.34;;;26.91;49.28
54556;BME280;57291;37.520;15.106;2022-08-03T00:51:18;100913.97;;;26.88;49.42
54556;BME280;57291;37.520;15.106;2022-08-03T00:53:45;100911.19;;;26.88;49.16
54556;BME280;57291;37.520;15.106;2022-08-03T00:56:14;100919.94;;;26.83;49.24
54556;BME280;57291;37.520;15.106;2022-08-03T00:58:43;100910.78;;;26.83;48.81
54556;BME280;57291;37.520;15.106;2022-08-03T01:01:11;100910.00;;;26.82;49.11
54556;BME280;57291;37.520;15.106;2022-08-03T01:03:39;100908.41;;;26.78;49.35
54556;BME280;57291;37.520;15.106;2022-08-03T01:06:15;100915.19;;;26.73;49.55
54556;BME280;57291;37.520;15.106;2022-08-03T01:08:51;100913.22;;;26.66;49.60
54556;BME280;57291;37.520;15.106;2022-08-03T01:14:38;100910.03;;;26.61;49.52
54556;BME280;57291;37.520;15.106;2022-08-03T01:17:29;100912.03;;;26.57;48.13
54556;BME280;57291;37.520;15.106;2022-08-03T01:20:06;100896.50;;;26.63;44.21
54556;BME280;57291;37.520;15.106;2022-08-03T01:31:15;100902.47;;;26.58;43.48
54556;BME280;57291;37.520;15.106;2022-08-03T01:33:48;100899.28;;;26.59;43.12
54556;BME280;57291;37.520;15.106;2022-08-03T01:36:31;100906.47;;;26.57;42.88
54556;BME280;57291;37.520;15.106;2022-08-03T01:39:02;100907.25;;;26.61;42.93
54556;BME280;57291;37.520;15.106;2022-08-03T01:41:33;100903.66;;;26.67;42.06
54556;BME280;57291;37.520;15.106;2022-08-03T01:44:02;100910.03;;;26.75;41.65
54556;BME280;57291;37.520;15.106;2022-08-03T01:46:52;100917.56;;;26.78;42.26
54556;BME280;57291;37.520;15.106;2022-08-03T01:49:20;100912.41;;;26.77;42.26
54556;BME280;57291;37.520;15.106;2022-08-03T01:51:48;100910.41;;;26.70;42.24
54556;BME280;57291;37.520;15.106;2022-08-03T01:54:41;100918.81;;;26.59;42.51
54556;BME280;57291;37.520;15.106;2022-08-03T01:57:09;100925.56;;;26.58;42.24
54556;BME280;57291;37.520;15.106;2022-08-03T01:59:37;100922.38;;;26.63;41.42
54556;BME280;57291;37.520;15.106;2022-08-03T02:02:06;100933.13;;;26.58;40.98
54556;BME280;57291;37.520;15.106;2022-08-03T02:04:56;100923.19;;;26.50;41.41
54556;BME280;57291;37.520;15.106;2022-08-03T02:07:25;100924.38;;;26.49;40.71
54556;BME280;57291;37.520;15.106;2022-08-03T02:09:53;100931.16;;;26.48;40.37
54556;BME280;57291;37.520;15.106;2022-08-03T02:12:25;100921.59;;;26.52;40.22
54556;BME280;57291;37.520;15.106;2022-08-03T02:14:54;100924.78;;;26.51;40.41
54556;BME280;57291;37.520;15.106;2022-08-03T02:17:26;100926.75;;;26.47;40.22
54556;BME280;57291;37.520;15.106;2022-08-03T02:20:07;100926.34;;;26.41;40.71
54556;BME280;57291;37.520;15.106;2022-08-03T02:22:38;100927.94;;;26.38;40.36
54556;BME280;57291;37.520;15.106;2022-08-03T02:25:08;100927.13;;;26.34;40.62
54556;BME280;57291;37.520;15.106;2022-08-03T02:27:39;100935.50;;;26.34;41.41
54556;BME280;57291;37.520;15.106;2022-08-03T02:30:11;100931.13;;;26.33;41.45
54556;BME280;57291;37.520;15.106;2022-08-03T02:32:41;100935.09;;;26.32;42.04
54556;BME280;57291;37.520;15.106;2022-08-03T02:35:14;100931.13;;;26.33;42.70
54556;BME280;57291;37.520;15.106;2022-08-03T02:37:47;100926.75;;;26.36;42.85
54556;BME280;57291;37.520;15.106;2022-08-03T02:40:18;100931.13;;;26.44;43.07
54556;BME280;57291;37.520;15.106;2022-08-03T02:42:48;100926.75;;;26.47;43.31
54556;BME280;57291;37.520;15.106;2022-08-03T02:45:18;100925.56;;;26.48;43.44
54556;BME280;57291;37.520;15.106;2022-08-03T02:47:47;100926.38;;;26.48;44.35
54556;BME280;57291;37.520;15.106;2022-08-03T02:50:21;100925.56;;;26.48;44.34
54556;BME280;57291;37.520;15.106;2022-08-03T02:52:51;100927.53;;;26.43;44.64
54556;BME280;57291;37.520;15.106;2022-08-03T02:55:20;100930.34;;;26.36;45.25
54556;BME280;57291;37.520;15.106;2022-08-03T02:57:49;100931.94;;;26.30;45.48
54556;BME280;57291;37.520;15.106;2022-08-03T03:00:17;100929.16;;;26.23;45.42
54556;BME280;57291;37.520;15.106;2022-08-03T03:02:58;100931.09;;;26.19;45.56
54556;BME280;57291;37.520;15.106;2022-08-03T03:05:27;100941.06;;;26.16;45.38
54556;BME280;57291;37.520;15.106;2022-08-03T03:08:18;100937.09;;;26.17;44.39
54556;BME280;57291;37.520;15.106;2022-08-03T03:10:57;100933.91;;;26.19;44.50
54556;BME280;57291;37.520;15.106;2022-08-03T03:13:27;100934.31;;;26.21;44.63
54556;BME280;57291;37.520;15.106;2022-08-03T03:15:58;100935.09;;;26.25;43.79
54556;BME280;57291;37.520;15.106;2022-08-03T03:18:28;100938.28;;;26.31;43.76
54556;BME280;57291;37.520;15.106;2022-08-03T03:20:57;100939.50;;;26.33;43.89
54556;BME280;57291;37.520;15.106;2022-08-03T03:23:27;100938.28;;;26.31;43.98
54556;BME280;57291;37.520;15.106;2022-08-03T03:25:55;100939.88;;;26.28;44.02
54556;BME280;57291;37.520;15.106;2022-08-03T03:28:24;100939.09;;;26.28;43.75
54556;BME280;57291;37.520;15.106;2022-08-03T03:30:51;100937.88;;;26.32;42.88
54556;BME280;57291;37.520;15.106;2022-08-03T03:33:20;100939.06;;;26.35;42.88
54556;BME280;57291;37.520;15.106;2022-08-03T03:35:48;100938.69;;;26.36;43.17
54556;BME280;57291;37.520;15.106;2022-08-03T03:38:17;100942.28;;;26.37;43.51
54556;BME280;57291;37.520;15.106;2022-08-03T03:40:45;100938.28;;;26.34;43.61
54556;BME280;57291;37.520;15.106;2022-08-03T03:43:12;100937.88;;;26.32;43.71
54556;BME280;57291;37.520;15.106;2022-08-03T03:45:40;100939.50;;;26.30;43.79
54556;BME280;57291;37.520;15.106;2022-08-03T03:48:11;100939.88;;;26.28;43.27
54556;BME280;57291;37.520;15.106;2022-08-03T03:50:38;100944.25;;;26.26;43.20
54556;BME280;57291;37.520;15.106;2022-08-03T03:53:10;100944.25;;;26.26;42.93
54556;BME280;57291;37.520;15.106;2022-08-03T03:55:38;100948.22;;;26.28;43.33
54556;BME280;57291;37.520;15.106;2022-08-03T03:58:26;100951.00;;;26.25;43.33
54556;BME280;57291;37.520;15.106;2022-08-03T04:00:53;100953.41;;;26.23;42.85
54556;BME280;57291;37.520;15.106;2022-08-03T04:03:21;100954.22;;;26.23;43.24
54556;BME280;57291;37.520;15.106;2022-08-03T04:05:48;100955.00;;;26.20;43.31
54556;BME280;57291;37.520;15.106;2022-08-03T04:08:34;100956.59;;;26.21;43.31
54556;BME280;57291;37.520;15.106;2022-08-03T04:11:30;100962.56;;;26.23;43.53
54556;BME280;57291;37.520;15.106;2022-08-03T04:14:07;100961.38;;;26.24;43.44
54556;BME280;57291;37.520;15.106;2022-08-03T04:16:38;100967.34;;;26.26;43.39
54556;BME280;57291;37.520;15.106;2022-08-03T04:19:16;100966.56;;;26.29;43.24
54556;BME280;57291;37.520;15.106;2022-08-03T04:21:51;100976.09;;;26.32;43.62
54556;BME280;57291;37.520;15.106;2022-08-03T04:24:24;100976.09;;;26.28;43.40
54556;BME280;57291;37.520;15.106;2022-08-03T04:26:54;100981.66;;;26.28;43.51
54556;BME280;57291;37.520;15.106;2022-08-03T04:29:25;100976.50;;;26.30;43.51
54556;BME280;57291;37.520;15.106;2022-08-03T04:31:53;100978.09;;;26.35;42.63
54556;BME280;57291;37.520;15.106;2022-08-03T04:34:21;100988.06;;;26.39;42.99
54556;BME280;57291;37.520;15.106;2022-08-03T04:36:52;100988.84;;;26.43;42.96
54556;BME280;57291;37.520;15.106;2022-08-03T04:39:25;100993.25;;;26.48;42.69
54556;BME280;57291;37.520;15.106;2022-08-03T04:41:55;100998.81;;;26.52;42.25
54556;BME280;57291;37.520;15.106;2022-08-03T04:44:39;100995.66;;;26.57;42.60
54556;BME280;57291;37.520;15.106;2022-08-03T04:47:08;100991.28;;;26.63;42.19
54556;BME280;57291;37.520;15.106;2022-08-03T04:49:36;101007.56;;;26.68;42.57
54556;BME280;57291;37.520;15.106;2022-08-03T04:52:06;101004.81;;;26.75;43.00
54556;BME280;57291;37.520;15.106;2022-08-03T04:54:44;101003.59;;;26.83;43.97
54556;BME280;57291;37.520;15.106;2022-08-03T04:57:16;101007.16;;;26.91;44.49
54556;BME280;57291;37.520;15.106;2022-08-03T04:59:52;101004.78;;;26.93;46.07
54556;BME280;57291;37.520;15.106;2022-08-03T05:02:28;101009.94;;;27.05;47.81
54556;BME280;57291;37.520;15.106;2022-08-03T05:04:56;101015.88;;;27.11;50.46
54556;BME280;57291;37.520;15.106;2022-08-03T05:07:23;101015.53;;;27.16;48.79
54556;BME280;57291;37.520;15.106;2022-08-03T05:09:51;101022.66;;;27.39;44.83
54556;BME280;57291;37.520;15.106;2022-08-03T05:12:29;101014.91;;;27.82;45.42
54556;BME280;57291;37.520;15.106;2022-08-03T05:15:00;101028.03;;;29.04;41.46
54556;BME280;57291;37.520;15.106;2022-08-03T05:17:27;101021.66;;;31.27;35.91
54556;BME280;57291;37.520;15.106;2022-08-03T05:19:55;101016.97;;;33.44;37.48
54556;BME280;57291;37.520;15.106;2022-08-03T05:22:22;101020.09;;;34.39;34.67
54556;BME280;57291;37.520;15.106;2022-08-03T05:24:50;101028.50;;;33.62;36.02
54556;BME280;57291;37.520;15.106;2022-08-03T05:27:17;101020.31;;;32.11;39.25
54556;BME280;57291;37.520;15.106;2022-08-03T05:29:49;101036.09;;;31.25;39.80
54556;BME280;57291;37.520;15.106;2022-08-03T05:32:16;101029.25;;;30.59;39.89
54556;BME280;57291;37.520;15.106;2022-08-03T05:34:44;101028.03;;;30.06;41.44
54556;BME280;57291;37.520;15.106;2022-08-03T05:37:11;101030.38;;;29.81;42.29
54556;BME280;57291;37.520;15.106;2022-08-03T05:39:39;101032.53;;;30.54;40.57
54556;BME280;57291;37.520;15.106;2022-08-03T05:42:06;101028.94;;;32.37;37.68
54556;BME280;57291;37.520;15.106;2022-08-03T05:44:33;101025.97;;;34.31;33.71
54556;BME280;57291;37.520;15.106;2022-08-03T05:47:04;101024.38;;;35.91;30.78
54556;BME280;57291;37.520;15.106;2022-08-03T05:49:32;101030.50;;;36.80;29.75
54556;BME280;57291;37.520;15.106;2022-08-03T05:51:59;101031.31;;;37.54;28.20
54556;BME280;57291;37.520;15.106;2022-08-03T05:54:41;101036.25;;;37.87;27.78
54556;BME280;57291;37.520;15.106;2022-08-03T05:57:23;101028.53;;;38.30;28.00
54556;BME280;57291;37.520;15.106;2022-08-03T05:59:50;101037.56;;;38.76;26.98
54556;BME280;57291;37.520;15.106;2022-08-03T06:02:25;101035.78;;;38.64;28.19
54556;BME280;57291;37.520;15.106;2022-08-03T06:04:53;101033.63;;;39.51;26.43
54556;BME280;57291;37.520;15.106;2022-08-03T06:07:20;101039.22;;;39.60;26.33
54556;BME280;57291;37.520;15.106;2022-08-03T06:09:47;101049.72;;;39.39;26.42
54556;BME280;57291;37.520;15.106;2022-08-03T06:12:34;101048.19;;;38.66;27.99
54556;BME280;57291;37.520;15.106;2022-08-03T06:15:05;101052.31;;;39.13;27.16
54556;BME280;57291;37.520;15.106;2022-08-03T06:17:44;101047.41;;;39.14;26.33
54556;BME280;57291;37.520;15.106;2022-08-03T06:20:12;101046.81;;;38.62;27.66
54556;BME280;57291;37.520;15.106;2022-08-03T06:22:39;101052.53;;;38.53;27.60
54556;BME280;57291;37.520;15.106;2022-08-03T06:25:17;101054.94;;;39.17;26.93
54556;BME280;57291;37.520;15.106;2022-08-03T06:27:47;101049.91;;;39.51;27.17
54556;BME280;57291;37.520;15.106;2022-08-03T06:30:14;101048.03;;;38.70;28.00
54556;BME280;57291;37.520;15.106;2022-08-03T06:32:47;101055.88;;;38.18;28.60
54556;BME280;57291;37.520;15.106;2022-08-03T06:35:18;101059.13;;;37.92;29.90
54556;BME280;57291;37.520;15.106;2022-08-03T06:37:48;101059.00;;;38.86;28.08
54556;BME280;57291;37.520;15.106;2022-08-03T06:40:18;101055.47;;;38.34;28.87
54556;BME280;57291;37.520;15.106;2022-08-03T06:42:50;101057.06;;;37.84;29.97
54556;BME280;57291;37.520;15.106;2022-08-03T06:45:17;101059.13;;;38.25;29.12
54556;BME280;57291;37.520;15.106;2022-08-03T06:47:44;101056.28;;;37.83;29.81
54556;BME280;57291;37.520;15.106;2022-08-03T06:50:11;101065.47;;;37.50;30.63
54556;BME280;57291;37.520;15.106;2022-08-03T06:52:43;101068.94;;;37.54;31.52
54556;BME280;57291;37.520;15.106;2022-08-03T06:55:11;101065.00;;;37.24;32.69
54556;BME280;57291;37.520;15.106;2022-08-03T06:57:38;101066.41;;;37.38;32.29
54556;BME280;57291;37.520;15.106;2022-08-03T07:00:06;101062.16;;;37.24;33.54
54556;BME280;57291;37.520;15.106;2022-08-03T07:02:38;101066.09;;;37.08;34.39
54556;BME280;57291;37.520;15.106;2022-08-03T07:05:07;101070.25;;;36.58;34.35
54556;BME280;57291;37.520;15.106;2022-08-03T07:07:35;101060.00;;;36.11;36.98
54556;BME280;57291;37.520;15.106;2022-08-03T07:10:04;101062.66;;;36.05;37.57
54556;BME280;57291;37.520;15.106;2022-08-03T07:12:32;101065.88;;;35.94;37.78
54556;BME280;57291;37.520;15.106;2022-08-03T07:15:00;101070.22;;;35.86;38.24
54556;BME280;57291;37.520;15.106;2022-08-03T07:17:31;101070.56;;;35.66;37.96
54556;BME280;57291;37.520;15.106;2022-08-03T07:20:02;101068.78;;;36.04;37.64
54556;BME280;57291;37.520;15.106;2022-08-03T07:22:30;101074.75;;;36.06;37.66
54556;BME280;57291;37.520;15.106;2022-08-03T07:24:57;101066.28;;;36.06;38.09
54556;BME280;57291;37.520;15.106;2022-08-03T07:27:25;101072.75;;;36.15;37.44
54556;BME280;57291;37.520;15.106;2022-08-03T07:29:55;101070.91;;;36.22;37.53
54556;BME280;57291;37.520;15.106;2022-08-03T07:32:23;101065.75;;;35.98;37.91
54556;BME280;57291;37.520;15.106;2022-08-03T07:34:50;101078.69;;;35.86;37.56
54556;BME280;57291;37.520;15.106;2022-08-03T07:37:24;101072.31;;;35.64;38.38
54556;BME280;57291;37.520;15.106;2022-08-03T07:39:51;101071.84;;;35.65;37.72
54556;BME280;57291;37.520;15.106;2022-08-03T07:42:18;101076.59;;;35.34;38.40
54556;BME280;57291;37.520;15.106;2022-08-03T07:44:46;101071.84;;;35.31;39.79
54556;BME280;57291;37.520;15.106;2022-08-03T07:50:16;101080.28;;;35.21;39.53
54556;BME280;57291;37.520;15.106;2022-08-03T07:52:43;101089.59;;;34.84;40.44
54556;BME280;57291;37.520;15.106;2022-08-03T07:55:22;101096.03;;;34.84;40.23
54556;BME280;57291;37.520;15.106;2022-08-03T07:57:59;101092.91;;;34.82;39.29
54556;BME280;57291;37.520;15.106;2022-08-03T08:00:27;101090.09;;;34.57;39.52
54556;BME280;57291;37.520;15.106;2022-08-03T08:02:55;101084.66;;;34.37;40.58
54556;BME280;57291;37.520;15.106;2022-08-03T08:05:22;101090.31;;;34.24;41.12
54556;BME280;57291;37.520;15.106;2022-08-03T08:07:50;101087.72;;;34.29;41.89
54556;BME280;57291;37.520;15.106;2022-08-03T08:10:17;101087.13;;;34.09;42.60
54556;BME280;57291;37.520;15.106;2022-08-03T08:12:45;101090.53;;;34.04;43.07
54556;BME280;57291;37.520;15.106;2022-08-03T08:15:12;101096.47;;;33.93;43.61
54556;BME280;57291;37.520;15.106;2022-08-03T08:17:59;101100.31;;;34.12;42.95
54556;BME280;57291;37.520;15.106;2022-08-03T08:20:31;101092.28;;;33.98;43.96
54556;BME280;57291;37.520;15.106;2022-08-03T08:23:05;101086.56;;;34.14;44.57
54556;BME280;57291;37.520;15.106;2022-08-03T08:25:53;101093.13;;;34.37;43.70
54556;BME280;57291;37.520;15.106;2022-08-03T08:28:21;101094.47;;;34.45;42.50
54556;BME280;57291;37.520;15.106;2022-08-03T08:31:00;101091.09;;;34.50;42.90
54556;BME280;57291;37.520;15.106;2022-08-03T08:33:27;101094.50;;;34.70;43.34
54556;BME280;57291;37.520;15.106;2022-08-03T08:36:15;101092.22;;;34.78;42.37
54556;BME280;57291;37.520;15.106;2022-08-03T08:38:43;101092.44;;;34.84;42.10
54556;BME280;57291;37.520;15.106;2022-08-03T08:41:12;101105.06;;;34.15;44.16
54556;BME280;57291;37.520;15.106;2022-08-03T08:43:40;101103.84;;;34.67;43.14
54556;BME280;57291;37.520;15.106;2022-08-03T08:46:13;101102.28;;;34.79;42.38
54556;BME280;57291;37.520;15.106;2022-08-03T08:48:50;101097.28;;;34.45;42.99
54556;BME280;57291;37.520;15.106;2022-08-03T08:51:19;101094.13;;;34.04;43.58
54556;BME280;57291;37.520;15.106;2022-08-03T08:53:50;101099.63;;;33.53;45.96
54556;BME280;57291;37.520;15.106;2022-08-03T08:56:19;101102.34;;;33.57;45.89
54556;BME280;57291;37.520;15.106;2022-08-03T08:58:56;101100.13;;;33.48;44.49
54556;BME280;57291;37.520;15.106;2022-08-03T09:01:24;101095.47;;;33.58;46.56
54556;BME280;57291;37.520;15.106;2022-08-03T09:03:52;101102.03;;;33.68;45.51
54556;BME280;57291;37.520;15.106;2022-08-03T09:06:21;101114.28;;;33.61;46.32
54556;BME280;57291;37.520;15.106;2022-08-03T09:08:48;101100.38;;;33.25;47.25
54556;BME280;57291;37.520;15.106;2022-08-03T09:11:20;101097.22;;;33.06;47.47
54556;BME280;57291;37.520;15.106;2022-08-03T09:14:08;101097.84;;;33.14;46.46
54556;BME280;57291;37.520;15.106;2022-08-03T09:17:00;101097.22;;;33.06;46.10
54556;BME280;57291;37.520;15.106;2022-08-03T09:19:29;101092.09;;;32.52;48.84
54556;BME280;57291;37.520;15.106;2022-08-03T09:22:11;101094.59;;;31.94;50.59
54556;BME280;57291;37.520;15.106;2022-08-03T09:25:03;101093.13;;;31.66;50.77
54556;BME280;57291;37.520;15.106;2022-08-03T09:27:51;101086.34;;;31.43;51.71
54556;BME280;57291;37.520;15.106;2022-08-03T09:30:19;101089.13;;;31.00;52.22
54556;BME280;57291;37.520;15.106;2022-08-03T09:33:05;101082.72;;;30.72;53.40
54556;BME280;57291;37.520;15.106;2022-08-03T09:35:47;101078.72;;;30.46;54.09
54556;BME280;57291;37.520;15.106;2022-08-03T09:38:22;101076.88;;;30.36;54.34
54556;BME280;57291;37.520;15.106;2022-08-03T09:40:50;101080.59;;;30.29;55.39
54556;BME280;57291;37.520;15.106;2022-08-03T09:43:24;101092.19;;;30.31;55.61
54556;BME280;57291;37.520;15.106;2022-08-03T09:46:01;101083.88;;;30.24;55.64
54556;BME280;57291;37.520;15.106;2022-08-03T09:48:30;101078.28;;;30.24;54.83
54556;BME280;57291;37.520;15.106;2022-08-03T09:50:59;101077.03;;;30.25;55.27
54556;BME280;57291;37.520;15.106;2022-08-03T09:53:47;101084.22;;;30.26;54.66
54556;BME280;57291;37.520;15.106;2022-08-03T09:56:41;101079.84;;;30.25;54.57
54556;BME280;57291;37.520;15.106;2022-08-03T09:59:13;101083.88;;;30.24;55.46
54556;BME280;57291;37.520;15.106;2022-08-03T10:01:49;101076.25;;;30.25;54.87
54556;BME280;57291;37.520;15.106;2022-08-03T10:04:16;101068.31;;;30.16;54.21
54556;BME280;57291;37.520;15.106;2022-08-03T10:06:45;101065.88;;;30.22;54.88
54556;BME280;57291;37.520;15.106;2022-08-03T10:09:15;101066.25;;;30.24;55.90
54556;BME280;57291;37.520;15.106;2022-08-03T10:11:43;101062.75;;;30.43;53.82
54556;BME280;57291;37.520;15.106;2022-08-03T10:14:11;101059.47;;;30.48;55.16
54556;BME280;57291;37.520;15.106;2022-08-03T10:16:46;101059.81;;;30.50;54.75
54556;BME280;57291;37.520;15.106;2022-08-03T10:19:15;101051.59;;;30.40;53.89
54556;BME280;57291;37.520;15.106;2022-08-03T10:21:56;101054.84;;;30.38;55.25
54556;BME280;57291;37.520;15.106;2022-08-03T10:24:25;101064.66;;;30.50;54.10
54556;BME280;57291;37.520;15.106;2022-08-03T10:27:05;101051.91;;;30.45;55.09
54556;BME280;57291;37.520;15.106;2022-08-03T10:29:38;101067.16;;;30.44;55.54
54556;BME280;57291;37.520;15.106;2022-08-03T10:32:17;101053.03;;;30.51;55.23
54556;BME280;57291;37.520;15.106;2022-08-03T10:34:49;101053.81;;;30.52;55.56
54556;BME280;57291;37.520;15.106;2022-08-03T10:37:29;101049.38;;;30.54;54.46
54556;BME280;57291;37.520;15.106;2022-08-03T10:39:59;101045.47;;;30.48;55.21
54556;BME280;57291;37.520;15.106;2022-08-03T10:42:27;101051.59;;;30.40;54.30
54556;BME280;57291;37.520;15.106;2022-08-03T10:45:06;101048.78;;;30.40;54.06
54556;BME280;57291;37.520;15.106;2022-08-03T10:47:35;101043.19;;;30.40;53.79
54556;BME280;57291;37.520;15.106;2022-08-03T10:50:04;101051.38;;;30.27;56.16
54556;BME280;57291;37.520;15.106;2022-08-03T10:52:32;101048.56;;;30.27;54.99
54556;BME280;57291;37.520;15.106;2022-08-03T10:55:30;101051.28;;;30.03;55.79
54556;BME280;57291;37.520;15.106;2022-08-03T11:01:49;101034.69;;;29.89;56.57
54556;BME280;57291;37.520;15.106;2022-08-03T11:04:25;101048.63;;;29.92;57.70
54556;BME280;57291;37.520;15.106;2022-08-03T11:09:46;101042.59;;;29.94;56.57
54556;BME280;57291;37.520;15.106;2022-08-03T11:12:28;101035.91;;;30.15;57.29
54556;BME280;57291;37.520;15.106;2022-08-03T11:15:00;101041.78;;;30.28;57.80
54556;BME280;57291;37.520;15.106;2022-08-03T11:17:28;101031.41;;;30.25;57.35
54556;BME280;57291;37.520;15.106;2022-08-03T11:19:56;101028.44;;;30.35;56.94
54556;BME280;57291;37.520;15.106;2022-08-03T11:22:24;101029.72;;;30.31;56.14
54556;BME280;57291;37.520;15.106;2022-08-03T11:25:12;101018.22;;;30.22;57.69
54556;BME280;57291;37.520;15.106;2022-08-03T11:28:26;101026.63;;;30.22;56.74
54556;BME280;57291;37.520;15.106;2022-08-03T11:30:54;101022.25;;;30.17;56.84
54556;BME280;57291;37.520;15.106;2022-08-03T11:33:30;101022.66;;;30.19;57.41
54556;BME280;57291;37.520;15.106;2022-08-03T11:36:00;101020.81;;;30.36;56.27
54556;BME280;57291;37.520;15.106;2022-08-03T11:38:28;101017.66;;;30.34;57.02
54556;BME280;57291;37.520;15.106;2022-08-03T11:40:56;101026.16;;;30.54;55.86
54556;BME280;57291;37.520;15.106;2022-08-03T11:46:07;101020.81;;;30.59;55.44
54556;BME280;57291;37.520;15.106;2022-08-03T11:48:40;101017.41;;;30.48;54.51
54556;BME280;57291;37.520;15.106;2022-08-03T11:51:27;101012.72;;;30.42;55.58
54556;BME280;57291;37.520;15.106;2022-08-03T11:54:03;101009.19;;;30.61;55.35
54556;BME280;57291;37.520;15.106;2022-08-03T11:59:11;101011.81;;;30.72;53.13
54556;BME280;57291;37.520;15.106;2022-08-03T12:01:47;101010.78;;;30.86;53.50
54556;BME280;57291;37.520;15.106;2022-08-03T12:04:14;101013.03;;;30.94;53.85
54556;BME280;57291;37.520;15.106;2022-08-03T12:06:59;101016.25;;;30.93;53.43
54556;BME280;57291;37.520;15.106;2022-08-03T12:09:27;101014.31;;;30.90;53.00
54556;BME280;57291;37.520;15.106;2022-08-03T12:11:54;101010.16;;;30.74;53.26
54556;BME280;57291;37.520;15.106;2022-08-03T12:14:27;101001.94;;;30.64;52.33
54556;BME280;57291;37.520;15.106;2022-08-03T12:17:17;101014.50;;;30.55;51.66
54556;BME280;57291;37.520;15.106;2022-08-03T12:19:45;101008.22;;;30.71;49.43
54556;BME280;57291;37.520;15.106;2022-08-03T12:22:12;100997.34;;;30.77;52.43
54556;BME280;57291;37.520;15.106;2022-08-03T12:24:42;100999.72;;;30.98;49.59
54556;BME280;57291;37.520;15.106;2022-08-03T12:27:25;101002.84;;;31.04;51.24
54556;BME280;57291;37.520;15.106;2022-08-03T12:29:54;101006.69;;;31.14;52.05
54556;BME280;57291;37.520;15.106;2022-08-03T12:32:26;101005.94;;;31.10;52.45
54556;BME280;57291;37.520;15.106;2022-08-03T12:34:54;101000.97;;;30.97;52.57
54556;BME280;57291;37.520;15.106;2022-08-03T12:37:26;101004.50;;;31.01;51.65
54556;BME280;57291;37.520;15.106;2022-08-03T12:39:55;101002.06;;;31.03;52.59
54556;BME280;57291;37.520;15.106;2022-08-03T12:42:31;100999.44;;;30.93;53.12
54556;BME280;57291;37.520;15.106;2022-08-03T12:47:56;100994.97;;;30.72;53.28
54556;BME280;57291;37.520;15.106;2022-08-03T12:50:26;100992.06;;;30.79;53.56
54556;BME280;57291;37.520;15.106;2022-08-03T12:52:56;100987.53;;;30.61;54.05
54556;BME280;57291;37.520;15.106;2022-08-03T12:55:24;100994.31;;;30.64;55.05
54556;BME280;57291;37.520;15.106;2022-08-03T12:57:53;100983.09;;;30.64;54.43
54556;BME280;57291;37.520;15.106;2022-08-03T13:00:20;100989.84;;;30.67;54.99
54556;BME280;57291;37.520;15.106;2022-08-03T13:03:04;100994.53;;;30.77;52.82
54556;BME280;57291;37.520;15.106;2022-08-03T13:05:51;100992.53;;;30.50;55.45
54556;BME280;57291;37.520;15.106;2022-08-03T13:08:21;100991.06;;;30.42;55.73
54556;BME280;57291;37.520;15.106;2022-08-03T13:10:49;100993.63;;;30.33;56.27
54556;BME280;57291;37.520;15.106;2022-08-03T13:13:16;100986.75;;;30.37;55.70
54556;BME280;57291;37.520;15.106;2022-08-03T13:15:43;100980.56;;;30.23;56.78
54556;BME280;57291;37.520;15.106;2022-08-03T13:18:14;100980.66;;;30.15;57.05
54556;BME280;57291;37.520;15.106;2022-08-03T13:20:43;100980.34;;;30.10;56.95
54556;BME280;57291;37.520;15.106;2022-08-03T13:23:10;100980.44;;;30.03;57.42
54556;BME280;57291;37.520;15.106;2022-08-03T13:25:48;100984.41;;;30.05;56.62
54556;BME280;57291;37.520;15.106;2022-08-03T13:28:21;100975.84;;;30.16;55.82
54556;BME280;57291;37.520;15.106;2022-08-03T13:30:49;100972.69;;;30.41;55.00
54556;BME280;57291;37.520;15.106;2022-08-03T13:33:16;100969.94;;;30.61;55.27
54556;BME280;57291;37.520;15.106;2022-08-03T13:35:44;100974.91;;;30.73;54.20